RYR496E LEZL-GCFV
Flight info
| Callsign | RYR496E |
|---|---|
| Flight time | N/A |
| Altitude | 35000 |
| Route | CLANA N857 KORNO/N0441F370 UN857 ABODA/N0443F390 UN857 TERTO |
| Aircraft | B738/M-SDE3FGILRWY/SB1 |
Departure
| Time | 2026-05-03 20:43 |
|---|---|
| Airport | Seville Airport (LEZL) |
Arrival
| Time | N/A |
|---|---|
| Airport | Fuerteventura Airport (GCFV) |
| Time | Latitude | Longitude | Altitude | Speed | Heading |
|---|---|---|---|---|---|
| 2026-05-03 20:18 | 37.42261 | -5.89902 | 94 ft | 0 kts | 344° |
| 2026-05-03 20:32 | 37.42241 | -5.89895 | 94 ft | 4 kts | 343° |
| 2026-05-03 20:32 | 37.42215 | -5.89884 | 92 ft | 4 kts | 342° |
| 2026-05-03 20:33 | 37.42193 | -5.89876 | 91 ft | 4 kts | 345° |
| 2026-05-03 20:33 | 37.42168 | -5.89873 | 92 ft | 4 kts | 17° |
| 2026-05-03 20:33 | 37.42153 | -5.89882 | 93 ft | 4 kts | 49° |
| 2026-05-03 20:33 | 37.42135 | -5.89919 | 95 ft | 3 kts | 49° |
| 2026-05-03 20:34 | 37.42133 | -5.89923 | 95 ft | 0 kts | 44° |
| 2026-05-03 20:35 | 37.42141 | -5.89912 | 95 ft | 6 kts | 46° |
| 2026-05-03 20:36 | 37.42198 | -5.89840 | 92 ft | 16 kts | 44° |
| 2026-05-03 20:36 | 37.42277 | -5.89748 | 93 ft | 4 kts | 42° |
| 2026-05-03 20:36 | 37.42278 | -5.89745 | 93 ft | 1 kts | 53° |
| 2026-05-03 20:36 | 37.42273 | -5.89727 | 95 ft | 4 kts | 130° |
| 2026-05-03 20:37 | 37.42239 | -5.89684 | 93 ft | 11 kts | 135° |
| 2026-05-03 20:37 | 37.42171 | -5.89600 | 92 ft | 16 kts | 135° |
| 2026-05-03 20:37 | 37.42090 | -5.89495 | 93 ft | 17 kts | 134° |
| 2026-05-03 20:37 | 37.42011 | -5.89392 | 94 ft | 16 kts | 133° |
| 2026-05-03 20:38 | 37.41983 | -5.89264 | 94 ft | 16 kts | 89° |
| 2026-05-03 20:38 | 37.41983 | -5.89108 | 97 ft | 21 kts | 90° |
| 2026-05-03 20:38 | 37.41984 | -5.88900 | 100 ft | 25 kts | 90° |
| 2026-05-03 20:38 | 37.41984 | -5.88691 | 106 ft | 23 kts | 90° |
| 2026-05-03 20:39 | 37.41985 | -5.88493 | 106 ft | 22 kts | 90° |
| 2026-05-03 20:39 | 37.41985 | -5.88281 | 108 ft | 27 kts | 90° |
| 2026-05-03 20:39 | 37.41986 | -5.88044 | 105 ft | 27 kts | 90° |
| 2026-05-03 20:39 | 37.41987 | -5.87812 | 104 ft | 26 kts | 90° |
| 2026-05-03 20:40 | 37.41988 | -5.87606 | 105 ft | 16 kts | 89° |
| 2026-05-03 20:40 | 37.41974 | -5.87499 | 105 ft | 12 kts | 119° |
| 2026-05-03 20:40 | 37.41914 | -5.87427 | 106 ft | 12 kts | 163° |
| 2026-05-03 20:40 | 37.41840 | -5.87436 | 108 ft | 9 kts | 196° |
| 2026-05-03 20:41 | 37.41803 | -5.87492 | 108 ft | 7 kts | 254° |
| 2026-05-03 20:41 | 37.41800 | -5.87547 | 107 ft | 6 kts | 271° |
| 2026-05-03 20:41 | 37.41800 | -5.87558 | 107 ft | 1 kts | 271° |
| 2026-05-03 20:41 | 37.41800 | -5.87565 | 107 ft | 0 kts | 271° |
| 2026-05-03 20:42 | 37.41800 | -5.87577 | 107 ft | 3 kts | 271° |
| 2026-05-03 20:42 | 37.41800 | -5.87751 | 105 ft | 51 kts | 269° |
| 2026-05-03 20:42 | 37.41797 | -5.88483 | 107 ft | 114 kts | 269° |
| 2026-05-03 20:42 | 37.41796 | -5.89704 | 183 ft | 157 kts | 268° |
| 2026-05-03 20:43 | 37.41812 | -5.91062 | 934 ft | 153 kts | 272° |
| 2026-05-03 20:43 | 37.42134 | -5.92367 | 1471 ft | 171 kts | 301° |
| 2026-05-03 20:43 | 37.43018 | -5.93509 | 1892 ft | 190 kts | 308° |
| 2026-05-03 20:43 | 37.43758 | -5.94948 | 2165 ft | 206 kts | 288° |
| 2026-05-03 20:44 | 37.43926 | -5.96740 | 2612 ft | 213 kts | 269° |
| 2026-05-03 20:44 | 37.43908 | -5.98705 | 2898 ft | 233 kts | 270° |
| 2026-05-03 20:44 | 37.43934 | -6.00788 | 3468 ft | 244 kts | 272° |
| 2026-05-03 20:44 | 37.43981 | -6.02976 | 4043 ft | 253 kts | 265° |
| 2026-05-03 20:45 | 37.43487 | -6.05102 | 4698 ft | 261 kts | 239° |
| 2026-05-03 20:45 | 37.42182 | -6.06706 | 5323 ft | 270 kts | 210° |
| 2026-05-03 20:45 | 37.40366 | -6.07357 | 5941 ft | 279 kts | 180° |
| 2026-05-03 20:45 | 37.38446 | -6.07082 | 6721 ft | 280 kts | 173° |
| 2026-05-03 20:46 | 37.36515 | -6.06839 | 7576 ft | 276 kts | 179° |
| 2026-05-03 20:46 | 37.34603 | -6.06697 | 8425 ft | 276 kts | 180° |
| 2026-05-03 20:46 | 37.32631 | -6.06568 | 8811 ft | 295 kts | 180° |
| 2026-05-03 20:46 | 37.30500 | -6.06426 | 9007 ft | 319 kts | 180° |
| 2026-05-03 20:47 | 37.28230 | -6.06264 | 9430 ft | 333 kts | 180° |
| 2026-05-03 20:47 | 37.25903 | -6.06087 | 10182 ft | 335 kts | 180° |
| 2026-05-03 20:47 | 37.23567 | -6.05905 | 10937 ft | 337 kts | 181° |
| 2026-05-03 20:47 | 37.21218 | -6.05722 | 11667 ft | 340 kts | 181° |
| 2026-05-03 20:48 | 37.18847 | -6.05538 | 12404 ft | 343 kts | 181° |
| 2026-05-03 20:48 | 37.16459 | -6.05482 | 13134 ft | 342 kts | 192° |
| 2026-05-03 20:48 | 37.14256 | -6.06347 | 13910 ft | 336 kts | 209° |
| 2026-05-03 20:48 | 37.12316 | -6.07944 | 14642 ft | 334 kts | 221° |
| 2026-05-03 20:49 | 37.10521 | -6.09826 | 15365 ft | 337 kts | 223° |
| 2026-05-03 20:49 | 37.08736 | -6.11752 | 16082 ft | 341 kts | 223° |
| 2026-05-03 20:49 | 37.06921 | -6.13688 | 16768 ft | 345 kts | 223° |
| 2026-05-03 20:49 | 37.05088 | -6.15615 | 17407 ft | 350 kts | 222° |
| 2026-05-03 20:50 | 37.03207 | -6.17574 | 18093 ft | 353 kts | 222° |
| 2026-05-03 20:50 | 37.01316 | -6.19554 | 18733 ft | 356 kts | 223° |
| 2026-05-03 20:50 | 36.99418 | -6.21565 | 19355 ft | 359 kts | 223° |
| 2026-05-03 20:50 | 36.97511 | -6.23593 | 19970 ft | 361 kts | 223° |
| 2026-05-03 20:51 | 36.95590 | -6.25637 | 20582 ft | 364 kts | 223° |
| 2026-05-03 20:51 | 36.93657 | -6.27691 | 21179 ft | 366 kts | 223° |
| 2026-05-03 20:51 | 36.91705 | -6.29764 | 21756 ft | 369 kts | 223° |
| 2026-05-03 20:51 | 36.89739 | -6.31849 | 22318 ft | 372 kts | 223° |
| 2026-05-03 20:52 | 36.87850 | -6.33849 | 22846 ft | 375 kts | 223° |
| 2026-05-03 20:52 | 36.85851 | -6.35965 | 23408 ft | 378 kts | 223° |
| 2026-05-03 20:52 | 36.83839 | -6.38091 | 23894 ft | 380 kts | 223° |
| 2026-05-03 20:52 | 36.81831 | -6.40212 | 24379 ft | 381 kts | 224° |
| 2026-05-03 20:53 | 36.79809 | -6.42345 | 24923 ft | 380 kts | 224° |
| 2026-05-03 20:53 | 36.77789 | -6.44475 | 25431 ft | 381 kts | 224° |
| 2026-05-03 20:53 | 36.75760 | -6.46614 | 25904 ft | 382 kts | 224° |
| 2026-05-03 20:53 | 36.73727 | -6.48756 | 26376 ft | 383 kts | 224° |
| 2026-05-03 20:54 | 36.71688 | -6.50902 | 26833 ft | 384 kts | 224° |
| 2026-05-03 20:54 | 36.67586 | -6.55215 | 27699 ft | 387 kts | 224° |
| 2026-05-03 20:54 | 36.65530 | -6.57375 | 28114 ft | 388 kts | 225° |
| 2026-05-03 20:55 | 36.63462 | -6.59546 | 28516 ft | 389 kts | 225° |
| 2026-05-03 20:55 | 36.61387 | -6.61722 | 28908 ft | 391 kts | 225° |
| 2026-05-03 20:55 | 36.59303 | -6.63906 | 29295 ft | 392 kts | 225° |
| 2026-05-03 20:55 | 36.57213 | -6.66096 | 29669 ft | 393 kts | 225° |
| 2026-05-03 20:56 | 36.55118 | -6.68289 | 30025 ft | 394 kts | 225° |
| 2026-05-03 20:56 | 36.53022 | -6.70480 | 30444 ft | 393 kts | 225° |
| 2026-05-03 20:56 | 36.50934 | -6.72659 | 30932 ft | 389 kts | 225° |
| 2026-05-03 20:56 | 36.48867 | -6.74804 | 31423 ft | 386 kts | 225° |
| 2026-05-03 20:57 | 36.46803 | -6.76931 | 31840 ft | 385 kts | 225° |
| 2026-05-03 20:57 | 36.44746 | -6.79047 | 32219 ft | 384 kts | 225° |
| 2026-05-03 20:57 | 36.42691 | -6.81159 | 32622 ft | 382 kts | 225° |
| 2026-05-03 20:57 | 36.40649 | -6.83257 | 33057 ft | 379 kts | 225° |
| 2026-05-03 20:58 | 36.38625 | -6.85336 | 33511 ft | 377 kts | 225° |
| 2026-05-03 20:58 | 36.36605 | -6.87411 | 33915 ft | 376 kts | 225° |
| 2026-05-03 20:58 | 36.34598 | -6.89473 | 34263 ft | 374 kts | 225° |
| 2026-05-03 20:58 | 36.32589 | -6.91535 | 34522 ft | 375 kts | 225° |
| 2026-05-03 20:59 | 36.30580 | -6.93598 | 34755 ft | 376 kts | 225° |
| 2026-05-03 20:59 | 36.28562 | -6.95668 | 34947 ft | 377 kts | 225° |
| 2026-05-03 20:59 | 36.26541 | -6.97739 | 35183 ft | 377 kts | 225° |
| 2026-05-03 20:59 | 36.24518 | -6.99810 | 35466 ft | 377 kts | 225° |
| 2026-05-03 21:00 | 36.22497 | -7.01877 | 35739 ft | 377 kts | 225° |
| 2026-05-03 21:00 | 36.21161 | -7.03242 | 35904 ft | 377 kts | 225° |
| 2026-05-03 21:00 | 36.18453 | -7.06009 | 36235 ft | 377 kts | 225° |
| 2026-05-03 21:00 | 36.16461 | -7.08042 | 36484 ft | 377 kts | 225° |
| 2026-05-03 21:01 | 36.14406 | -7.10139 | 36725 ft | 377 kts | 225° |
| 2026-05-03 21:01 | 36.12382 | -7.12202 | 36939 ft | 378 kts | 225° |
| 2026-05-03 21:01 | 36.10380 | -7.14243 | 37192 ft | 378 kts | 225° |
| 2026-05-03 21:01 | 36.08353 | -7.16306 | 37441 ft | 377 kts | 225° |
| 2026-05-03 21:02 | 36.06328 | -7.18366 | 37659 ft | 378 kts | 225° |
| 2026-05-03 21:02 | 36.04311 | -7.20416 | 37876 ft | 378 kts | 225° |
| 2026-05-03 21:02 | 36.02284 | -7.22476 | 38060 ft | 378 kts | 225° |
| 2026-05-03 21:02 | 36.00247 | -7.24544 | 38243 ft | 379 kts | 225° |
| 2026-05-03 21:03 | 35.98208 | -7.26614 | 38411 ft | 380 kts | 225° |
| 2026-05-03 21:03 | 35.96163 | -7.28687 | 38622 ft | 380 kts | 225° |
| 2026-05-03 21:03 | 35.94122 | -7.30754 | 38835 ft | 380 kts | 225° |
| 2026-05-03 21:03 | 35.92079 | -7.32824 | 38970 ft | 380 kts | 225° |
| 2026-05-03 21:04 | 35.87967 | -7.36986 | 39072 ft | 384 kts | 225° |
| 2026-05-03 21:04 | 35.83835 | -7.41156 | 39071 ft | 382 kts | 225° |
| 2026-05-03 21:05 | 35.79725 | -7.45275 | 39083 ft | 380 kts | 225° |
| 2026-05-03 21:05 | 35.75631 | -7.49352 | 39086 ft | 378 kts | 225° |
| 2026-05-03 21:06 | 35.71554 | -7.53411 | 39087 ft | 376 kts | 225° |
| 2026-05-03 21:06 | 35.67488 | -7.57458 | 39088 ft | 376 kts | 225° |
| 2026-05-03 21:07 | 35.63423 | -7.61498 | 39097 ft | 376 kts | 225° |
| 2026-05-03 21:07 | 35.59347 | -7.65546 | 39094 ft | 378 kts | 225° |
| 2026-05-03 21:08 | 35.55251 | -7.69606 | 39093 ft | 379 kts | 225° |
| 2026-05-03 21:08 | 35.51138 | -7.73678 | 39091 ft | 380 kts | 225° |
| 2026-05-03 21:09 | 35.47013 | -7.77757 | 39085 ft | 381 kts | 225° |
| 2026-05-03 21:09 | 35.42872 | -7.81846 | 39095 ft | 383 kts | 225° |
| 2026-05-03 21:10 | 35.38731 | -7.85950 | 39099 ft | 383 kts | 225° |
| 2026-05-03 21:10 | 35.34590 | -7.90092 | 39094 ft | 384 kts | 225° |
| 2026-05-03 21:11 | 35.30443 | -7.94238 | 39099 ft | 385 kts | 225° |
| 2026-05-03 21:11 | 35.26288 | -7.98382 | 39096 ft | 385 kts | 225° |